createdAt,value
2023-03-31T00:01:30.964Z,72.15
2023-03-31T00:04:33.002Z,71.97
2023-03-31T00:07:34.820Z,72.15
2023-03-31T00:10:44.650Z,71.47
2023-03-31T00:13:46.721Z,71.46
2023-03-31T00:16:49.061Z,71.67
2023-03-31T00:20:11.662Z,71.80
2023-03-31T00:23:15.970Z,72.36
2023-03-31T00:26:20.786Z,72.98
2023-03-31T00:29:22.827Z,73.50
2023-03-31T00:32:28.631Z,74.21
2023-03-31T00:35:30.605Z,74.09
2023-03-31T00:38:35.641Z,74.11
2023-03-31T00:41:40.142Z,74.14
2023-03-31T00:45:27.205Z,74.19
2023-03-31T00:48:51.051Z,74.16
2023-03-31T00:51:59.634Z,74.36
2023-03-31T00:55:09.201Z,74.72
2023-03-31T00:58:12.141Z,74.20
2023-03-31T01:01:17.542Z,73.93
2023-03-31T01:04:30.971Z,73.58
2023-03-31T01:07:42.759Z,73.40
2023-03-31T01:10:59.981Z,73.17
2023-03-31T01:14:14.185Z,73.05
2023-03-31T01:17:16.397Z,72.86
2023-03-31T01:20:56.078Z,72.57
2023-03-31T01:24:16.485Z,72.23
2023-03-31T01:27:47.669Z,72.57
2023-03-31T01:31:02.172Z,73.05
2023-03-31T01:34:40.368Z,73.36
2023-03-31T01:38:15.026Z,72.92
2023-03-31T01:41:20.773Z,72.89
2023-03-31T01:44:40.239Z,72.72
2023-03-31T01:48:07.625Z,73.10
2023-03-31T01:51:18.173Z,72.89
2023-03-31T01:54:57.582Z,72.61
2023-03-31T01:58:08.673Z,72.76
2023-03-31T02:01:17.633Z,72.39
2023-03-31T02:04:23.478Z,72.48
2023-03-31T02:07:32.209Z,72.01
2023-03-31T02:10:35.040Z,72.15
2023-03-31T02:13:42.035Z,72.32
2023-03-31T02:16:48.029Z,72.32
2023-03-31T02:20:02.792Z,72.78
2023-03-31T02:23:05.172Z,72.33
2023-03-31T02:26:31.577Z,72.57
2023-03-31T02:29:34.021Z,72.28
2023-03-31T02:32:45.005Z,72.74
2023-03-31T02:35:56.338Z,72.45
2023-03-31T02:39:08.293Z,72.37
2023-03-31T02:42:12.719Z,72.18
2023-03-31T02:45:37.821Z,72.07
2023-03-31T02:48:43.911Z,71.77
2023-03-31T02:52:24.018Z,71.75
2023-03-31T02:56:03.743Z,71.87
2023-03-31T02:59:30.213Z,72.02
2023-03-31T03:02:49.278Z,72.03
2023-03-31T03:06:15.499Z,72.22
2023-03-31T03:09:53.198Z,72.21
2023-03-31T03:13:05.104Z,71.78
2023-03-31T03:16:33.997Z,71.67
2023-03-31T03:19:36.071Z,71.54
2023-03-31T03:22:39.479Z,71.77
2023-03-31T03:25:41.775Z,71.78
2023-03-31T03:28:43.745Z,71.84
2023-03-31T03:31:48.648Z,71.52
2023-03-31T03:34:50.880Z,71.66
2023-03-31T03:38:21.676Z,72.12
2023-03-31T03:41:23.666Z,71.98
2023-03-31T03:44:31.731Z,72.10
2023-03-31T03:47:53.785Z,72.09
2023-03-31T03:50:56.009Z,72.10
2023-03-31T03:54:18.092Z,72.13
2023-03-31T03:57:39.987Z,72.11
2023-03-31T04:00:51.050Z,71.99
2023-03-31T04:03:52.960Z,71.81
2023-03-31T04:06:58.442Z,71.75
2023-03-31T04:10:00.350Z,71.80
2023-03-31T04:13:02.105Z,72.25
2023-03-31T04:16:06.461Z,72.55
2023-03-31T04:19:08.516Z,72.67
2023-03-31T04:22:58.227Z,72.69
2023-03-31T04:26:00.584Z,72.40
2023-03-31T04:29:14.194Z,72.69
2023-03-31T04:32:21.311Z,72.68
2023-03-31T04:35:45.005Z,72.74
2023-03-31T04:39:10.049Z,72.75
2023-03-31T04:42:35.010Z,72.80
2023-03-31T04:45:39.505Z,73.00
2023-03-31T04:48:44.390Z,72.78
2023-03-31T04:51:49.194Z,72.88
2023-03-31T04:55:14.197Z,72.74
2023-03-31T04:58:16.173Z,72.74
2023-03-31T05:01:18.634Z,72.75
2023-03-31T05:04:28.592Z,72.78
2023-03-31T05:07:50.547Z,72.80
2023-03-31T05:10:52.451Z,72.62
2023-03-31T05:14:12.339Z,72.55
2023-03-31T05:17:34.573Z,72.69
2023-03-31T05:20:36.384Z,72.85
2023-03-31T05:23:38.251Z,72.74
2023-03-31T05:26:40.268Z,72.89
2023-03-31T05:30:04.882Z,73.04
2023-03-31T05:33:16.956Z,72.73
2023-03-31T05:36:18.939Z,72.48
2023-03-31T05:39:21.157Z,72.54
2023-03-31T05:42:25.939Z,72.25
2023-03-31T05:45:35.010Z,72.02
2023-03-31T05:48:59.389Z,72.07
2023-03-31T05:52:01.406Z,72.07
2023-03-31T05:55:04.162Z,72.02
2023-03-31T05:58:06.872Z,71.86
2023-03-31T06:01:19.912Z,71.82
2023-03-31T06:04:21.796Z,71.67
2023-03-31T06:07:41.584Z,71.72
2023-03-31T06:10:50.835Z,71.91
2023-03-31T06:13:52.874Z,71.87
2023-03-31T06:16:57.367Z,72.10
2023-03-31T06:20:24.600Z,72.06
2023-03-31T06:23:41.880Z,72.18
2023-03-31T06:26:46.941Z,72.08
2023-03-31T06:29:51.298Z,71.82
2023-03-31T06:32:53.201Z,71.73
2023-03-31T06:35:58.350Z,71.64
2023-03-31T06:39:00.205Z,71.03
2023-03-31T06:42:01.891Z,70.96
2023-03-31T06:45:03.728Z,71.01
2023-03-31T06:48:06.201Z,70.24
2023-03-31T06:51:08.888Z,68.91
2023-03-31T06:54:10.749Z,69.46
2023-03-31T06:57:12.937Z,67.57
2023-03-31T07:00:15.246Z,68.42
2023-03-31T07:03:17.256Z,67.60
2023-03-31T07:06:19.284Z,65.39
2023-03-31T07:09:20.829Z,62.48
2023-03-31T07:12:22.386Z,65.27
2023-03-31T07:15:25.214Z,62.25
2023-03-31T07:18:26.880Z,63.95
2023-03-31T07:21:28.622Z,64.29
2023-03-31T07:24:30.135Z,64.51
2023-03-31T07:27:31.687Z,61.54
2023-03-31T07:30:33.532Z,61.31
2023-03-31T07:33:35.508Z,61.10
2023-03-31T07:36:37.224Z,57.65
2023-03-31T07:39:38.861Z,54.58
2023-03-31T07:42:41.729Z,53.78
2023-03-31T07:45:43.441Z,52.39
2023-03-31T07:48:45.661Z,53.93
2023-03-31T07:51:47.197Z,56.15
2023-03-31T07:54:49.240Z,51.61
2023-03-31T07:57:50.839Z,50.03
2023-03-31T08:00:52.511Z,50.15
2023-03-31T08:03:54.157Z,51.45
2023-03-31T08:06:55.741Z,53.39
2023-03-31T08:09:57.913Z,50.70
2023-03-31T08:12:59.576Z,51.70
2023-03-31T08:16:01.250Z,49.99
2023-03-31T08:19:02.864Z,49.39
2023-03-31T08:22:04.446Z,49.52
2023-03-31T08:25:07.260Z,51.66
2023-03-31T08:28:08.871Z,51.79
2023-03-31T08:31:10.545Z,50.47
2023-03-31T08:34:12.250Z,49.88
2023-03-31T08:37:14.029Z,50.35
2023-03-31T08:40:20.028Z,50.60
2023-03-31T08:43:27.946Z,51.69
2023-03-31T08:46:30.879Z,51.86
2023-03-31T08:49:42.318Z,52.16
2023-03-31T08:53:15.712Z,52.29
2023-03-31T08:56:19.442Z,48.18
2023-03-31T08:59:29.998Z,46.74
2023-03-31T09:03:00.508Z,45.49
2023-03-31T09:06:11.829Z,47.48
2023-03-31T09:09:26.667Z,49.50
2023-03-31T09:12:51.115Z,49.28
2023-03-31T09:16:05.030Z,47.54
2023-03-31T09:19:36.932Z,47.76
2023-03-31T09:22:42.058Z,47.55
2023-03-31T09:25:44.519Z,46.22
2023-03-31T09:28:46.757Z,46.04
2023-03-31T09:31:48.450Z,44.82
2023-03-31T09:34:57.594Z,45.66
2023-03-31T09:37:59.296Z,46.57
2023-03-31T09:41:02.540Z,47.27
2023-03-31T09:44:22.528Z,49.19
2023-03-31T09:47:39.321Z,47.40
2023-03-31T09:50:46.715Z,48.90
2023-03-31T09:53:58.875Z,48.96
2023-03-31T09:57:00.494Z,49.78
2023-03-31T10:00:13.598Z,49.07
2023-03-31T10:03:15.888Z,50.34
2023-03-31T10:06:17.673Z,51.59
2023-03-31T10:09:21.711Z,49.40
2023-03-31T10:12:29.083Z,46.92
2023-03-31T10:15:30.706Z,45.90
2023-03-31T10:18:38.751Z,44.13
2023-03-31T10:21:40.502Z,42.51
2023-03-31T10:24:44.520Z,44.20
2023-03-31T10:27:52.438Z,43.43
2023-03-31T10:30:58.713Z,43.70
2023-03-31T10:34:07.421Z,42.06
2023-03-31T10:37:17.369Z,40.24
2023-03-31T10:40:25.896Z,40.50
2023-03-31T10:43:30.217Z,40.11
2023-03-31T10:46:43.315Z,42.93
2023-03-31T10:49:45.420Z,44.52
2023-03-31T10:52:48.622Z,45.42
2023-03-31T10:56:01.817Z,45.99
2023-03-31T10:59:22.176Z,43.97
2023-03-31T11:03:02.583Z,43.05
2023-03-31T11:06:12.480Z,43.11
2023-03-31T11:09:56.600Z,43.45
2023-03-31T11:13:27.749Z,45.18
2023-03-31T11:16:41.209Z,46.01
2023-03-31T11:19:53.329Z,47.25
2023-03-31T11:22:58.731Z,46.90
2023-03-31T11:26:09.425Z,45.61
2023-03-31T11:29:29.199Z,44.57
2023-03-31T11:32:51.849Z,44.93
2023-03-31T11:35:53.452Z,45.26
2023-03-31T11:39:20.125Z,44.94
2023-03-31T11:42:26.423Z,46.42
2023-03-31T11:45:32.902Z,46.49
2023-03-31T11:48:48.296Z,46.68
2023-03-31T11:51:54.747Z,46.33
2023-03-31T11:55:18.333Z,46.15
2023-03-31T11:58:29.699Z,46.61
2023-03-31T12:01:42.477Z,46.97
2023-03-31T12:04:50.587Z,48.09
2023-03-31T12:08:00.647Z,48.30
2023-03-31T12:11:11.257Z,48.88
2023-03-31T12:14:37.506Z,49.38
2023-03-31T12:17:40.889Z,49.77
2023-03-31T12:20:58.656Z,50.28
2023-03-31T12:24:00.292Z,50.44
2023-03-31T12:27:13.626Z,50.61
2023-03-31T12:30:28.290Z,50.69
2023-03-31T12:33:42.656Z,50.55
2023-03-31T12:36:57.106Z,49.82
2023-03-31T12:40:11.494Z,48.37
2023-03-31T12:43:49.369Z,47.34
2023-03-31T12:47:10.399Z,47.17
2023-03-31T12:50:36.849Z,47.52
2023-03-31T12:54:09.115Z,47.72
2023-03-31T12:57:10.730Z,46.60
2023-03-31T13:00:26.439Z,47.06
2023-03-31T13:03:34.189Z,46.62
2023-03-31T13:06:35.910Z,45.41
2023-03-31T13:09:44.509Z,44.11
2023-03-31T13:13:12.100Z,45.04
2023-03-31T13:16:20.286Z,46.07
2023-03-31T13:19:30.246Z,45.87
2023-03-31T13:22:35.350Z,45.23
2023-03-31T13:25:41.679Z,45.92
2023-03-31T13:28:43.796Z,45.65
2023-03-31T13:32:00.684Z,45.41
2023-03-31T13:35:14.250Z,45.15
2023-03-31T13:38:22.895Z,44.59
2023-03-31T13:41:55.858Z,44.30
2023-03-31T13:45:30.290Z,45.26
2023-03-31T13:49:01.997Z,45.85
2023-03-31T13:52:05.290Z,45.85
2023-03-31T13:55:24.285Z,46.40
2023-03-31T13:58:39.218Z,44.92
2023-03-31T14:02:05.236Z,45.23
2023-03-31T14:05:22.985Z,43.86
2023-03-31T14:08:27.714Z,44.54
2023-03-31T14:11:32.391Z,44.55
2023-03-31T14:14:34.079Z,44.42
2023-03-31T14:17:40.662Z,43.97
2023-03-31T14:20:50.002Z,45.38
2023-03-31T14:24:13.395Z,45.68
2023-03-31T14:27:37.301Z,46.01
2023-03-31T14:31:01.521Z,46.36
2023-03-31T14:34:34.214Z,47.08
2023-03-31T14:37:35.974Z,52.51
2023-03-31T15:03:52.000Z,63.85
2023-03-31T15:06:54.638Z,64.57
2023-03-31T15:09:56.306Z,65.68
2023-03-31T15:12:57.988Z,71.25
2023-03-31T15:16:00.421Z,75.84
2023-03-31T15:19:07.865Z,76.82
2023-03-31T15:22:15.246Z,74.49
2023-03-31T15:25:17.273Z,74.27
2023-03-31T15:28:18.932Z,75.37
2023-03-31T15:31:21.033Z,75.99
2023-03-31T15:34:27.042Z,76.61
2023-03-31T15:37:31.489Z,76.67
2023-03-31T15:40:38.354Z,76.39
2023-03-31T15:43:49.777Z,75.56
2023-03-31T15:47:01.309Z,75.55
2023-03-31T15:50:13.062Z,75.09
2023-03-31T15:53:36.172Z,75.29
2023-03-31T15:56:42.773Z,74.88
2023-03-31T16:02:53.432Z,75.09
2023-03-31T16:06:00.889Z,75.23
2023-03-31T16:09:06.774Z,75.05
2023-03-31T16:12:30.497Z,74.48
2023-03-31T16:15:36.100Z,73.13
2023-03-31T16:18:41.604Z,72.76
2023-03-31T16:21:47.477Z,72.45
2023-03-31T16:24:49.447Z,72.48
2023-03-31T16:27:54.071Z,72.08
2023-03-31T16:30:55.667Z,73.20
2023-03-31T16:33:57.286Z,72.75
2023-03-31T16:36:58.924Z,71.90
2023-03-31T16:40:00.612Z,71.15
2023-03-31T16:43:18.705Z,70.99
2023-03-31T16:46:21.676Z,70.89
2023-03-31T16:49:23.221Z,70.74
2023-03-31T16:52:24.838Z,70.65
2023-03-31T16:55:26.412Z,70.43
2023-03-31T16:58:28.666Z,70.49
2023-03-31T17:01:30.301Z,70.15
2023-03-31T17:04:32.230Z,70.05
2023-03-31T17:07:33.868Z,70.20
2023-03-31T17:10:36.217Z,70.38
2023-03-31T17:13:39.004Z,70.02
2023-03-31T17:16:48.153Z,69.94
2023-03-31T17:19:50.367Z,70.05
2023-03-31T17:22:52.292Z,70.00
2023-03-31T17:25:54.186Z,70.14
2023-03-31T17:28:55.834Z,69.95
2023-03-31T17:31:57.737Z,69.94
2023-03-31T17:34:59.530Z,70.30
2023-03-31T17:38:01.056Z,70.13
2023-03-31T17:41:08.056Z,70.38
2023-03-31T17:44:09.739Z,70.62
2023-03-31T17:47:11.370Z,70.68
2023-03-31T17:50:13.022Z,70.57
2023-03-31T17:53:14.642Z,70.51
2023-03-31T17:56:17.260Z,70.26
2023-03-31T17:59:19.373Z,70.21
2023-03-31T18:02:21.106Z,70.02
2023-03-31T18:05:22.805Z,69.66
2023-03-31T18:08:24.472Z,69.60
2023-03-31T18:11:26.263Z,68.90
2023-03-31T18:14:27.882Z,69.32
2023-03-31T18:17:30.825Z,69.54
2023-03-31T18:20:33.189Z,69.55
2023-03-31T18:23:36.084Z,69.59
2023-03-31T18:26:37.695Z,70.18
2023-03-31T18:29:39.307Z,69.94
2023-03-31T18:32:41.031Z,69.45
2023-03-31T18:35:42.799Z,69.60
2023-03-31T18:38:46.155Z,69.50
2023-03-31T18:41:48.553Z,69.29
2023-03-31T18:44:50.975Z,69.17
2023-03-31T18:47:52.640Z,69.52
2023-03-31T18:50:54.458Z,69.13
2023-03-31T18:53:56.201Z,68.67
2023-03-31T18:56:57.842Z,68.67
2023-03-31T18:59:59.582Z,68.88
2023-03-31T19:03:01.089Z,69.00
2023-03-31T19:06:07.286Z,69.12
2023-03-31T19:09:08.996Z,69.12
2023-03-31T19:12:10.768Z,69.46
2023-03-31T19:15:12.310Z,69.54
2023-03-31T19:18:14.387Z,69.66
2023-03-31T19:21:15.933Z,70.08
2023-03-31T19:24:17.632Z,70.38
2023-03-31T19:27:19.581Z,70.64
2023-03-31T19:30:23.458Z,70.76
2023-03-31T19:33:25.979Z,70.87
2023-03-31T19:36:27.877Z,71.07
2023-03-31T19:39:29.308Z,70.49
2023-03-31T19:42:33.262Z,70.46
2023-03-31T19:45:36.524Z,70.44
2023-03-31T19:48:38.243Z,70.35
2023-03-31T19:51:39.942Z,70.44
2023-03-31T19:54:41.498Z,70.81
2023-03-31T19:57:42.969Z,70.48
2023-03-31T20:00:44.628Z,70.29
2023-03-31T20:03:46.475Z,70.48
2023-03-31T20:06:49.457Z,70.21
2023-03-31T20:09:51.240Z,70.44
2023-03-31T20:12:53.909Z,70.57
2023-03-31T20:15:59.896Z,70.59
2023-03-31T20:19:20.692Z,70.06
2023-03-31T20:22:28.056Z,70.00
2023-03-31T20:25:30.447Z,70.14
2023-03-31T20:28:33.934Z,70.07
2023-03-31T20:31:37.094Z,70.11
2023-03-31T20:34:38.752Z,70.58
2023-03-31T20:37:40.300Z,71.03
2023-03-31T20:40:45.517Z,70.69
2023-03-31T20:43:47.490Z,70.40
2023-03-31T20:46:49.209Z,70.36
2023-03-31T20:49:50.891Z,70.52
2023-03-31T20:52:52.528Z,70.58
2023-03-31T20:55:55.807Z,70.46
2023-03-31T20:58:58.442Z,70.41
2023-03-31T21:02:00.280Z,70.30
2023-03-31T21:05:01.993Z,70.15
2023-03-31T21:08:03.776Z,70.26
2023-03-31T21:11:05.427Z,70.30
2023-03-31T21:14:07.672Z,69.98
2023-03-31T21:17:09.549Z,70.01
2023-03-31T21:20:11.382Z,70.06
2023-03-31T21:23:12.968Z,70.22
2023-03-31T21:26:14.953Z,70.11
2023-03-31T21:29:17.069Z,69.96
2023-03-31T21:32:20.828Z,70.05
2023-03-31T21:35:23.017Z,69.94
2023-03-31T21:38:26.485Z,69.84
2023-03-31T21:41:30.528Z,70.32
2023-03-31T21:44:32.277Z,70.41
2023-03-31T21:47:33.815Z,70.56
2023-03-31T21:50:39.085Z,70.48
2023-03-31T21:53:40.810Z,70.49
2023-03-31T21:56:42.362Z,70.50
2023-03-31T21:59:43.902Z,70.20
2023-03-31T22:02:45.486Z,70.10
2023-03-31T22:05:48.402Z,69.90
2023-03-31T22:08:50.031Z,70.01
2023-03-31T22:11:51.655Z,69.99
2023-03-31T22:14:54.276Z,70.05
2023-03-31T22:17:55.871Z,70.03
2023-03-31T22:20:58.278Z,70.30
2023-03-31T22:24:01.162Z,70.42
2023-03-31T22:27:02.836Z,70.44
2023-03-31T22:30:04.889Z,70.69
2023-03-31T22:33:06.711Z,70.69
2023-03-31T22:36:08.911Z,70.89
2023-03-31T22:39:10.496Z,71.20
2023-03-31T22:42:11.958Z,70.80
2023-03-31T22:45:13.606Z,70.49
2023-03-31T22:48:15.452Z,70.50
2023-03-31T22:51:17.488Z,70.15
2023-03-31T22:54:19.020Z,69.90
2023-03-31T22:57:20.592Z,70.06
2023-03-31T23:00:22.341Z,69.71
2023-03-31T23:03:24.265Z,69.39
2023-03-31T23:06:26.063Z,69.29
2023-03-31T23:09:27.813Z,68.54
2023-03-31T23:12:29.806Z,68.08
2023-03-31T23:15:31.661Z,67.97
2023-03-31T23:18:34.395Z,68.13
2023-03-31T23:21:35.995Z,67.92
2023-03-31T23:24:37.612Z,67.60
2023-03-31T23:27:39.216Z,67.33
2023-03-31T23:30:41.096Z,67.21
2023-03-31T23:33:42.983Z,66.87
2023-03-31T23:36:44.550Z,66.85
2023-03-31T23:39:46.282Z,66.87
2023-03-31T23:42:47.852Z,66.74
2023-03-31T23:45:49.437Z,66.77
2023-03-31T23:48:51.356Z,66.91
2023-03-31T23:51:52.975Z,66.74
2023-03-31T23:54:54.665Z,66.75
2023-03-31T23:57:56.257Z,66.83
